createdAt,value
2023-03-31T00:02:13.860Z,15.70
2023-03-31T00:05:18.367Z,12.23
2023-03-31T00:08:21.499Z,12.30
2023-03-31T00:11:23.777Z,11.65
2023-03-31T00:14:26.577Z,10.55
2023-03-31T00:17:33.306Z,9.73
2023-03-31T00:20:38.263Z,10.40
2023-03-31T00:23:43.783Z,15.30
2023-03-31T00:26:46.149Z,10.43
2023-03-31T00:29:50.812Z,11.20
2023-03-31T00:32:53.373Z,13.60
2023-03-31T00:35:56.445Z,13.90
2023-03-31T00:39:09.558Z,10.77
2023-03-31T00:42:15.517Z,9.88
2023-03-31T00:45:24.253Z,9.05
2023-03-31T00:48:27.740Z,7.53
2023-03-31T00:51:32.648Z,11.63
2023-03-31T00:54:36.687Z,7.63
2023-03-31T00:57:39.897Z,11.40
2023-03-31T01:00:42.794Z,8.85
2023-03-31T01:03:46.937Z,9.90
2023-03-31T01:07:00.940Z,12.90
2023-03-31T01:10:05.296Z,9.35
2023-03-31T01:13:11.935Z,14.93
2023-03-31T01:16:14.385Z,13.50
2023-03-31T01:19:29.178Z,13.17
2023-03-31T01:23:07.224Z,16.27
2023-03-31T01:26:43.416Z,11.20
2023-03-31T01:30:04.618Z,13.52
2023-03-31T01:33:17.457Z,10.85
2023-03-31T01:36:29.283Z,13.93
2023-03-31T01:39:43.744Z,12.10
2023-03-31T01:43:02.030Z,11.65
2023-03-31T01:46:33.842Z,13.50
2023-03-31T01:49:43.643Z,14.93
2023-03-31T01:52:56.859Z,12.03
2023-03-31T01:56:12.963Z,11.93
2023-03-31T01:59:29.595Z,11.15
2023-03-31T02:02:37.780Z,9.57
2023-03-31T02:05:47.988Z,10.35
2023-03-31T02:08:56.302Z,12.57
2023-03-31T02:12:00.740Z,12.33
2023-03-31T02:15:06.312Z,12.07
2023-03-31T02:18:11.701Z,11.68
2023-03-31T02:21:16.576Z,13.13
2023-03-31T02:24:20.899Z,7.93
2023-03-31T02:27:43.232Z,12.80
2023-03-31T02:30:45.710Z,12.90
2023-03-31T02:33:48.988Z,8.18
2023-03-31T02:36:51.370Z,12.32
2023-03-31T02:39:56.003Z,10.43
2023-03-31T02:42:58.408Z,8.77
2023-03-31T02:46:00.799Z,11.00
2023-03-31T02:49:07.452Z,10.07
2023-03-31T02:52:25.455Z,13.90
2023-03-31T02:55:52.496Z,13.73
2023-03-31T02:59:16.983Z,9.33
2023-03-31T03:02:27.205Z,9.35
2023-03-31T03:05:35.032Z,8.90
2023-03-31T03:09:09.043Z,10.13
2023-03-31T03:12:16.887Z,6.10
2023-03-31T03:15:32.008Z,7.03
2023-03-31T03:18:34.727Z,6.53
2023-03-31T03:21:37.122Z,6.75
2023-03-31T03:24:40.175Z,6.68
2023-03-31T03:27:42.624Z,5.40
2023-03-31T03:30:45.079Z,8.30
2023-03-31T03:33:47.510Z,5.13
2023-03-31T03:36:49.795Z,4.05
2023-03-31T03:39:52.148Z,4.93
2023-03-31T03:42:54.897Z,6.63
2023-03-31T03:45:57.774Z,4.87
2023-03-31T03:49:00.291Z,5.30
2023-03-31T03:52:03.118Z,11.95
2023-03-31T03:55:07.097Z,4.78
2023-03-31T03:58:09.604Z,4.17
2023-03-31T04:01:11.908Z,4.00
2023-03-31T04:04:14.564Z,5.32
2023-03-31T04:07:17.594Z,4.78
2023-03-31T04:10:19.888Z,5.20
2023-03-31T04:13:22.210Z,3.73
2023-03-31T04:16:25.611Z,4.53
2023-03-31T04:19:27.990Z,6.25
2023-03-31T04:22:34.980Z,6.70
2023-03-31T04:25:38.716Z,6.25
2023-03-31T04:28:42.972Z,6.27
2023-03-31T04:31:45.572Z,12.47
2023-03-31T04:34:50.773Z,6.43
2023-03-31T04:37:59.206Z,8.63
2023-03-31T04:41:01.817Z,8.73
2023-03-31T04:44:04.385Z,10.80
2023-03-31T04:47:07.162Z,12.87
2023-03-31T04:50:16.172Z,8.10
2023-03-31T04:53:19.483Z,7.80
2023-03-31T04:56:22.967Z,14.73
2023-03-31T04:59:25.481Z,8.53
2023-03-31T05:02:27.805Z,9.37
2023-03-31T05:05:30.540Z,9.05
2023-03-31T05:08:34.181Z,8.05
2023-03-31T05:11:39.510Z,7.78
2023-03-31T05:14:41.883Z,6.57
2023-03-31T05:17:45.009Z,9.03
2023-03-31T05:20:47.377Z,11.85
2023-03-31T05:23:50.278Z,7.53
2023-03-31T05:26:53.120Z,9.50
2023-03-31T05:29:55.713Z,14.40
2023-03-31T05:32:58.196Z,9.80
2023-03-31T05:36:00.946Z,10.40
2023-03-31T05:39:05.586Z,14.90
2023-03-31T05:42:07.993Z,16.50
2023-03-31T05:45:10.631Z,13.23
2023-03-31T05:48:13.191Z,13.53
2023-03-31T05:51:15.553Z,10.45
2023-03-31T05:54:17.842Z,9.50
2023-03-31T05:57:20.459Z,12.43
2023-03-31T06:00:23.032Z,7.57
2023-03-31T06:03:25.730Z,9.67
2023-03-31T06:06:28.095Z,8.25
2023-03-31T06:09:31.816Z,10.63
2023-03-31T06:12:34.666Z,10.30
2023-03-31T06:15:36.996Z,12.53
2023-03-31T06:18:40.684Z,12.60
2023-03-31T06:21:50.495Z,7.97
2023-03-31T06:24:54.212Z,8.27
2023-03-31T06:27:56.523Z,11.02
2023-03-31T06:31:10.289Z,9.87
2023-03-31T06:34:13.481Z,7.70
2023-03-31T06:37:15.939Z,11.73
2023-03-31T06:40:18.752Z,6.30
2023-03-31T06:43:21.240Z,9.45
2023-03-31T06:46:24.779Z,6.47
2023-03-31T06:50:52.775Z,5.83
2023-03-31T06:53:56.284Z,8.68
2023-03-31T06:56:59.213Z,9.88
2023-03-31T07:00:01.622Z,7.80
2023-03-31T07:03:04.828Z,8.43
2023-03-31T07:06:07.503Z,7.00
2023-03-31T07:09:09.808Z,9.35
2023-03-31T07:12:12.199Z,9.98
2023-03-31T07:15:14.760Z,7.18
2023-03-31T07:18:19.207Z,9.57
2023-03-31T07:21:21.656Z,7.20
2023-03-31T07:24:24.526Z,9.15
2023-03-31T07:27:28.433Z,10.80
2023-03-31T07:30:30.755Z,8.50
2023-03-31T07:33:33.089Z,7.37
2023-03-31T07:36:35.884Z,8.50
2023-03-31T07:39:41.319Z,5.50
2023-03-31T07:42:46.494Z,7.25
2023-03-31T07:45:50.436Z,6.45
2023-03-31T07:48:54.080Z,10.87
2023-03-31T07:51:57.182Z,7.97
2023-03-31T07:54:59.572Z,7.45
2023-03-31T07:58:02.212Z,8.57
2023-03-31T08:01:04.991Z,9.90
2023-03-31T08:04:08.980Z,5.90
2023-03-31T08:07:14.458Z,7.37
2023-03-31T08:10:20.506Z,5.60
2023-03-31T08:13:25.390Z,7.57
2023-03-31T08:16:27.936Z,8.52
2023-03-31T08:19:30.497Z,5.77
2023-03-31T08:22:32.798Z,12.13
2023-03-31T08:25:35.511Z,5.43
2023-03-31T08:28:37.976Z,6.32
2023-03-31T08:31:40.537Z,6.35
2023-03-31T08:34:43.097Z,6.27
2023-03-31T08:37:45.398Z,6.27
2023-03-31T08:40:47.689Z,7.15
2023-03-31T08:43:50.387Z,6.63
2023-03-31T08:46:55.316Z,6.65
2023-03-31T08:50:01.102Z,3.87
2023-03-31T08:53:07.050Z,5.17
2023-03-31T08:56:16.728Z,5.95
2023-03-31T09:01:08.750Z,4.53
2023-03-31T09:04:19.752Z,5.93
2023-03-31T09:07:39.263Z,4.87
2023-03-31T09:10:53.510Z,3.97
2023-03-31T09:14:18.553Z,7.55
2023-03-31T09:17:25.993Z,5.13
2023-03-31T09:20:37.568Z,5.80
2023-03-31T09:44:49.998Z,11.07
2023-03-31T09:48:09.316Z,8.73
2023-03-31T09:51:30.790Z,4.97
2023-03-31T09:54:45.834Z,3.88
2023-03-31T09:57:48.184Z,3.90
2023-03-31T10:01:03.111Z,4.75
2023-03-31T10:04:08.789Z,4.50
2023-03-31T10:07:11.893Z,5.10
2023-03-31T10:10:44.386Z,4.53
2023-03-31T10:13:49.975Z,2.78
2023-03-31T10:16:56.824Z,9.07
2023-03-31T10:20:09.230Z,5.57
2023-03-31T10:23:16.874Z,5.20
2023-03-31T10:26:22.604Z,3.15
2023-03-31T10:29:34.414Z,3.60
2023-03-31T10:32:43.825Z,5.20
2023-03-31T10:35:49.759Z,9.73
2023-03-31T10:38:57.379Z,5.13
2023-03-31T10:41:59.889Z,6.63
2023-03-31T10:45:36.632Z,3.42
2023-03-31T10:48:42.402Z,4.85
2023-03-31T10:51:56.522Z,13.43
2023-03-31T10:55:01.699Z,4.97
2023-03-31T10:58:25.066Z,5.57
2023-03-31T11:01:49.510Z,12.45
2023-03-31T11:05:22.537Z,6.80
2023-03-31T11:08:28.824Z,4.10
2023-03-31T11:11:49.732Z,3.40
2023-03-31T11:15:04.242Z,4.57
2023-03-31T11:18:17.007Z,4.78
2023-03-31T11:21:28.446Z,3.88
2023-03-31T11:24:44.218Z,4.97
2023-03-31T11:28:18.999Z,4.10
2023-03-31T11:31:34.222Z,2.50
2023-03-31T11:34:55.172Z,3.00
2023-03-31T11:38:24.014Z,7.13
2023-03-31T11:41:38.788Z,4.23
2023-03-31T11:44:53.590Z,6.73
2023-03-31T11:48:05.495Z,4.47
2023-03-31T11:51:16.839Z,7.85
2023-03-31T11:54:37.174Z,2.70
2023-03-31T11:57:45.586Z,6.30
2023-03-31T12:01:28.700Z,4.73
2023-03-31T12:04:52.301Z,2.67
2023-03-31T12:08:03.770Z,2.38
2023-03-31T12:11:20.232Z,2.22
2023-03-31T12:14:46.207Z,3.70
2023-03-31T12:18:00.016Z,5.93
2023-03-31T12:21:03.876Z,8.15
2023-03-31T12:24:08.403Z,5.30
2023-03-31T12:27:16.882Z,1.88
2023-03-31T12:30:34.626Z,7.40
2023-03-31T12:33:46.491Z,5.00
2023-03-31T12:37:16.803Z,4.47
2023-03-31T12:40:41.644Z,3.72
2023-03-31T12:44:15.188Z,3.17
2023-03-31T12:47:44.719Z,6.10
2023-03-31T12:51:02.265Z,7.23
2023-03-31T12:54:34.545Z,4.10
2023-03-31T12:57:37.389Z,20.70
2023-03-31T13:01:11.978Z,5.63
2023-03-31T13:04:21.515Z,7.87
2023-03-31T13:07:29.034Z,7.43
2023-03-31T13:10:33.809Z,8.75
2023-03-31T13:17:22.396Z,4.75
2023-03-31T13:20:30.979Z,2.83
2023-03-31T13:23:38.553Z,4.13
2023-03-31T13:26:46.880Z,5.30
2023-03-31T13:29:53.232Z,4.63
2023-03-31T13:33:22.005Z,9.95
2023-03-31T13:36:51.090Z,5.83
2023-03-31T13:40:13.580Z,3.67
2023-03-31T13:43:56.393Z,6.65
2023-03-31T13:47:31.522Z,4.75
2023-03-31T13:50:41.902Z,4.25
2023-03-31T13:53:54.790Z,3.77
2023-03-31T13:57:51.569Z,4.03
2023-03-31T14:01:17.229Z,6.00
2023-03-31T14:04:31.744Z,2.33
2023-03-31T14:07:46.509Z,15.30
2023-03-31T14:10:48.836Z,5.93
2023-03-31T14:14:13.070Z,4.80
2023-03-31T14:17:16.381Z,3.08
2023-03-31T14:20:42.916Z,2.67
2023-03-31T14:23:53.975Z,5.57
2023-03-31T14:27:12.112Z,7.03
2023-03-31T14:30:41.157Z,2.80
2023-03-31T14:34:06.904Z,4.97
2023-03-31T14:37:17.982Z,4.50
2023-03-31T14:40:20.635Z,3.90
2023-03-31T14:43:46.507Z,4.10
2023-03-31T14:46:48.856Z,3.97
2023-03-31T14:50:13.493Z,4.32
2023-03-31T14:53:23.700Z,3.67
2023-03-31T14:56:37.940Z,2.97
2023-03-31T14:59:41.188Z,3.70
2023-03-31T15:02:44.766Z,6.40
2023-03-31T15:05:49.159Z,4.53
2023-03-31T15:08:56.800Z,2.67
2023-03-31T15:12:02.025Z,6.03
2023-03-31T15:15:06.840Z,3.07
2023-03-31T15:18:12.964Z,9.93
2023-03-31T15:21:25.547Z,6.80
2023-03-31T15:24:31.541Z,5.60
2023-03-31T15:31:09.690Z,2.60
2023-03-31T15:34:15.851Z,2.37
2023-03-31T15:37:23.803Z,4.47
2023-03-31T15:40:33.091Z,6.57
2023-03-31T15:43:42.361Z,12.43
2023-03-31T15:46:49.085Z,3.70
2023-03-31T15:49:58.270Z,3.17
2023-03-31T15:53:02.270Z,5.50
2023-03-31T15:56:05.291Z,3.90
2023-03-31T15:59:25.163Z,6.75
2023-03-31T16:02:43.363Z,4.67
2023-03-31T16:05:56.043Z,4.77
2023-03-31T16:09:04.335Z,5.32
2023-03-31T16:12:18.500Z,5.22
2023-03-31T16:15:28.602Z,2.58
2023-03-31T16:18:36.056Z,4.00
2023-03-31T16:21:41.961Z,1.70
2023-03-31T16:24:44.727Z,3.05
2023-03-31T16:27:50.856Z,3.22
2023-03-31T16:30:54.651Z,2.30
2023-03-31T16:33:57.768Z,3.17
2023-03-31T16:37:00.149Z,3.07
2023-03-31T16:40:02.838Z,4.82
2023-03-31T16:43:11.366Z,5.68
2023-03-31T16:46:13.819Z,5.65
2023-03-31T16:49:16.226Z,4.07
2023-03-31T16:52:18.544Z,6.70
2023-03-31T16:55:20.955Z,4.38
2023-03-31T16:58:24.372Z,3.20
2023-03-31T17:01:27.140Z,3.88
2023-03-31T17:04:29.773Z,4.60
2023-03-31T17:07:33.172Z,2.70
2023-03-31T17:10:35.847Z,2.40
2023-03-31T17:13:39.549Z,3.72
2023-03-31T17:16:48.172Z,4.38
2023-03-31T17:19:51.621Z,5.67
2023-03-31T17:22:54.284Z,4.30
2023-03-31T17:25:57.165Z,6.05
2023-03-31T17:29:00.722Z,6.32
2023-03-31T17:32:03.059Z,6.68
2023-03-31T17:35:07.062Z,3.43
2023-03-31T17:38:12.679Z,4.03
2023-03-31T17:41:15.520Z,4.32
2023-03-31T17:44:17.927Z,3.55
2023-03-31T17:47:23.863Z,7.60
2023-03-31T17:50:27.327Z,5.00
2023-03-31T17:53:30.308Z,4.00
2023-03-31T17:56:32.629Z,5.35
2023-03-31T17:59:37.565Z,7.22
2023-03-31T18:02:41.322Z,2.72
2023-03-31T18:05:44.647Z,6.13
2023-03-31T18:08:47.182Z,3.57
2023-03-31T18:11:49.570Z,7.45
2023-03-31T18:14:54.510Z,3.38
2023-03-31T18:17:56.835Z,3.70
2023-03-31T18:21:03.778Z,8.60
2023-03-31T18:24:06.513Z,3.90
2023-03-31T18:27:08.913Z,4.55
2023-03-31T18:30:11.974Z,3.92
2023-03-31T18:33:14.515Z,3.70
2023-03-31T18:36:18.844Z,4.17
2023-03-31T18:39:21.422Z,7.43
2023-03-31T18:42:25.786Z,8.43
2023-03-31T18:45:30.810Z,6.97
2023-03-31T18:48:34.907Z,5.88
2023-03-31T18:51:37.238Z,7.67
2023-03-31T18:54:39.653Z,8.30
2023-03-31T18:57:42.227Z,2.95
2023-03-31T19:00:45.387Z,6.47
2023-03-31T19:03:47.908Z,3.38
2023-03-31T19:06:52.427Z,8.00
2023-03-31T19:09:54.688Z,5.63
2023-03-31T19:12:57.215Z,7.38
2023-03-31T19:15:59.522Z,5.57
2023-03-31T19:19:03.900Z,8.05
2023-03-31T19:22:06.189Z,5.27
2023-03-31T19:25:09.137Z,5.87
2023-03-31T19:28:16.424Z,4.10
2023-03-31T19:31:20.656Z,5.30
2023-03-31T19:34:23.014Z,3.60
2023-03-31T19:37:25.836Z,4.90
2023-03-31T19:40:28.138Z,3.87
2023-03-31T19:43:30.971Z,6.60
2023-03-31T19:46:34.713Z,2.65
2023-03-31T19:49:37.181Z,3.88
2023-03-31T19:52:39.454Z,1.67
2023-03-31T19:55:42.554Z,2.07
2023-03-31T19:58:45.483Z,2.72
2023-03-31T20:01:47.919Z,2.85
2023-03-31T20:04:50.285Z,2.67
2023-03-31T20:07:52.611Z,2.90
2023-03-31T20:10:59.927Z,1.60
2023-03-31T20:14:03.313Z,3.20
2023-03-31T20:17:08.055Z,2.03
2023-03-31T20:20:10.752Z,1.92
2023-03-31T20:23:13.067Z,2.30
2023-03-31T20:26:20.855Z,3.10
2023-03-31T20:29:24.225Z,1.83
2023-03-31T20:32:26.471Z,2.33
2023-03-31T20:35:29.365Z,1.98
2023-03-31T20:38:33.051Z,1.03
2023-03-31T20:41:37.392Z,3.13
2023-03-31T20:44:39.774Z,2.03
2023-03-31T20:47:42.291Z,1.75
2023-03-31T20:50:44.871Z,1.15
2023-03-31T20:53:49.319Z,1.00
2023-03-31T20:56:51.913Z,1.57
2023-03-31T20:59:54.836Z,1.90
2023-03-31T21:02:57.442Z,0.82
2023-03-31T21:06:05.018Z,1.48
2023-03-31T21:09:08.036Z,1.57
2023-03-31T21:12:10.346Z,0.87
2023-03-31T21:15:13.217Z,2.65
2023-03-31T21:18:16.813Z,1.60
2023-03-31T21:21:19.585Z,1.05
2023-03-31T21:24:22.552Z,2.00
2023-03-31T21:27:24.825Z,1.17
2023-03-31T21:30:27.156Z,1.65
2023-03-31T21:33:30.839Z,2.88
2023-03-31T21:36:33.148Z,0.50
2023-03-31T21:39:35.482Z,2.43
2023-03-31T21:42:38.097Z,2.57
2023-03-31T21:45:40.882Z,2.38
2023-03-31T21:48:43.747Z,3.63
2023-03-31T21:51:46.296Z,1.83
2023-03-31T21:54:48.656Z,3.80
2023-03-31T21:57:50.994Z,2.90
2023-03-31T22:00:55.483Z,2.50
2023-03-31T22:03:59.156Z,1.67
2023-03-31T22:07:01.393Z,5.35
2023-03-31T22:10:04.924Z,2.67
2023-03-31T22:13:07.302Z,3.33
2023-03-31T22:16:21.628Z,1.38
2023-03-31T22:19:24.037Z,3.20
2023-03-31T22:22:26.613Z,3.08
2023-03-31T22:25:28.863Z,3.47
2023-03-31T22:28:31.166Z,2.33
2023-03-31T22:31:33.541Z,1.95
2023-03-31T22:34:36.201Z,2.33
2023-03-31T22:37:38.843Z,2.70
2023-03-31T22:40:41.159Z,3.73
2023-03-31T22:43:45.890Z,2.43
2023-03-31T22:46:50.034Z,2.55
2023-03-31T22:49:52.417Z,2.90
2023-03-31T22:52:54.743Z,3.17
2023-03-31T22:55:57.041Z,3.50
2023-03-31T22:58:59.416Z,3.27
2023-03-31T23:02:01.860Z,2.28
2023-03-31T23:05:04.310Z,2.55
2023-03-31T23:08:06.558Z,2.95
2023-03-31T23:11:11.952Z,2.07
2023-03-31T23:14:14.188Z,3.70
2023-03-31T23:17:16.540Z,1.85
2023-03-31T23:20:18.816Z,1.02
2023-03-31T23:23:21.255Z,5.35
2023-03-31T23:26:25.523Z,2.70
2023-03-31T23:29:28.122Z,3.20
2023-03-31T23:32:30.518Z,2.58
2023-03-31T23:35:33.116Z,4.38
2023-03-31T23:38:36.023Z,6.15
2023-03-31T23:41:38.304Z,3.53
2023-03-31T23:44:40.589Z,3.10
2023-03-31T23:47:42.958Z,5.30
2023-03-31T23:50:45.662Z,2.75
2023-03-31T23:53:47.980Z,3.17
2023-03-31T23:56:50.359Z,5.77
2023-03-31T23:59:52.765Z,2.43
